الصفحة الرئيسية
METAR-TAF:

METAR-TAF

مطار :

تشوفو, اليابان

دائرة عرض: 35-40N, خط طول: 139-32E, ارتفاع: 41 متر

مراقبة الطقس الحالي

تاريخ ووقت الإصدار 15ساعات و 36 دقيقة قبل الساعة 08:00UTC
ريح 10 عقدة من الجنوب/الجنوب الغربي, الاتجاه يتراوح بين الجنوب/الجنوب الشرقي و الغرب/الجنوب الغربي
درجة الحرارة 32°درجة مئوية
الرطوبة 59%
ضغط 1009 hPa
الرؤية 10 كم أو أكثر
غيوم قليلة على ارتفاع 3000 قدم
غيوم مفككة

METAR: RJTF 210800Z 20010KT 160V240 9999 FEW030 BKN/// 32/23 Q1009

زمن: 08:36 (23:36 UTC)


TAF: مفقودة

أرصاد الطقس والتوقعات من أكثر من 4000 مطار (تقارير الطقس للمطار METAR والتنبؤ بالطقس بالمطارTAF).

المحطات المتاحة هي النقط الصفراء والحمراء على الخريطة.

حرك المؤشر فوق النقطة لمعرفة اسم المحطة.

ثم انقر لمعرفة أرصاد وتوقعات الطقس.

لتغيير الخارطة: اضغط على الأزرار الخضراء مع رمز الصليب الأسود للتكبير. على الزر الأخضر مع شرطة للتصغير، أو على الأسهم الخضراء للخرائط المجاورة.


METAR-TAF: